createdAt,value
2023-01-05T00:00:58.775Z,10.63
2023-01-05T00:01:58.765Z,10.62
2023-01-05T00:02:58.759Z,10.62
2023-01-05T00:03:58.759Z,10.62
2023-01-05T00:04:58.716Z,10.65
2023-01-05T00:05:58.723Z,10.65
2023-01-05T00:06:58.717Z,10.66
2023-01-05T00:07:58.695Z,10.65
2023-01-05T00:08:58.678Z,10.66
2023-01-05T00:09:58.668Z,10.66
2023-01-05T00:10:58.680Z,10.65
2023-01-05T00:11:58.640Z,10.63
2023-01-05T00:12:58.642Z,10.62
2023-01-05T00:13:58.633Z,10.62
2023-01-05T00:14:58.624Z,10.60
2023-01-05T00:15:58.642Z,10.60
2023-01-05T00:16:58.611Z,10.62
2023-01-05T00:17:58.586Z,10.62
2023-01-05T00:18:58.572Z,10.60
2023-01-05T00:19:58.592Z,10.62
2023-01-05T00:20:58.576Z,10.63
2023-01-05T00:21:58.555Z,10.62
2023-01-05T00:22:58.744Z,10.59
2023-01-05T00:23:58.634Z,10.58
2023-01-05T00:24:58.600Z,10.55
2023-01-05T00:25:58.495Z,10.53
2023-01-05T00:26:58.494Z,10.52
2023-01-05T00:27:58.487Z,10.47
2023-01-05T00:28:58.456Z,10.43
2023-01-05T00:29:58.464Z,10.42
2023-01-05T00:30:58.436Z,10.40
2023-01-05T00:31:58.505Z,10.37
2023-01-05T00:32:58.420Z,10.34
2023-01-05T00:33:58.471Z,10.33
2023-01-05T00:34:58.404Z,10.30
2023-01-05T00:35:58.454Z,10.26
2023-01-05T00:36:58.431Z,10.26
2023-01-05T00:37:58.412Z,10.25
2023-01-05T00:38:58.393Z,10.22
2023-01-05T00:39:58.532Z,10.22
2023-01-05T00:40:58.437Z,10.21
2023-01-05T00:41:58.416Z,10.22
2023-01-05T00:42:58.353Z,10.22
2023-01-05T00:43:58.378Z,10.22
2023-01-05T00:44:58.297Z,10.21
2023-01-05T00:45:58.343Z,10.21
2023-01-05T00:46:58.323Z,10.19
2023-01-05T00:47:58.307Z,10.21
2023-01-05T00:48:58.250Z,10.21
2023-01-05T00:49:58.241Z,10.19
2023-01-05T00:50:58.259Z,10.18
2023-01-05T00:51:58.255Z,10.17
2023-01-05T00:52:58.260Z,10.14
2023-01-05T00:53:58.237Z,10.14
2023-01-05T00:54:58.218Z,10.12
2023-01-05T00:56:04.710Z,10.09
2023-01-05T00:56:58.139Z,10.09
2023-01-05T00:57:58.123Z,10.09
2023-01-05T00:58:58.129Z,10.09
2023-01-05T00:59:58.097Z,10.07
2023-01-05T01:00:58.121Z,10.06
2023-01-05T01:01:58.217Z,10.07
2023-01-05T01:02:58.104Z,10.06
2023-01-05T01:03:58.056Z,10.04
2023-01-05T01:04:58.041Z,10.04
2023-01-05T01:05:58.054Z,10.03
2023-01-05T01:06:58.043Z,10.01
2023-01-05T01:07:58.009Z,10.04
2023-01-05T01:08:58.005Z,10.03
2023-01-05T01:09:57.988Z,10.03
2023-01-05T01:10:57.972Z,10.03
2023-01-05T01:11:57.987Z,10.01
2023-01-05T01:12:57.962Z,10.03
2023-01-05T01:13:57.954Z,10.03
2023-01-05T01:14:57.946Z,10.06
2023-01-05T01:15:57.915Z,10.04
2023-01-05T01:16:57.958Z,10.06
2023-01-05T01:17:57.902Z,10.06
2023-01-05T01:19:02.948Z,10.06
2023-01-05T01:19:57.892Z,10.03
2023-01-05T01:20:57.873Z,10.03
2023-01-05T01:21:57.872Z,10.01
2023-01-05T01:22:57.841Z,10.03
2023-01-05T01:23:57.825Z,10.03
2023-01-05T01:24:57.830Z,10.01
2023-01-05T01:25:57.816Z,10.00
2023-01-05T01:26:57.806Z,10.00
2023-01-05T01:27:57.791Z,10.00
2023-01-05T01:28:57.769Z,10.01
2023-01-05T01:29:57.768Z,9.99
2023-01-05T01:30:57.818Z,9.99
2023-01-05T01:31:57.760Z,10.00
2023-01-05T01:32:57.722Z,9.99
2023-01-05T01:33:57.724Z,9.99
2023-01-05T01:34:57.707Z,9.99
2023-01-05T01:35:57.701Z,10.00
2023-01-05T01:36:57.715Z,10.00
2023-01-05T01:37:57.668Z,10.01
2023-01-05T01:38:57.670Z,10.01
2023-01-05T01:39:57.654Z,10.03
2023-01-05T01:40:57.644Z,10.01
2023-01-05T01:41:57.659Z,10.03
2023-01-05T01:42:57.620Z,10.03
2023-01-05T01:43:57.609Z,10.03
2023-01-05T01:44:57.604Z,10.01
2023-01-05T01:45:57.606Z,10.00
2023-01-05T01:46:57.586Z,10.03
2023-01-05T01:47:57.578Z,10.03
2023-01-05T01:48:57.548Z,10.01
2023-01-05T01:49:57.544Z,10.00
2023-01-05T01:50:58.491Z,10.00
2023-01-05T01:51:57.532Z,10.00
2023-01-05T01:52:57.522Z,9.99
2023-01-05T01:53:57.501Z,10.00
2023-01-05T01:54:57.488Z,10.00
2023-01-05T01:55:57.477Z,10.00
2023-01-05T01:56:57.490Z,10.00
2023-01-05T01:57:57.452Z,9.99
2023-01-05T01:58:57.446Z,10.01
2023-01-05T01:59:57.437Z,10.01
2023-01-05T02:00:57.459Z,10.00
2023-01-05T02:01:57.568Z,10.01
2023-01-05T02:02:57.405Z,10.03
2023-01-05T02:03:57.391Z,10.00
2023-01-05T02:04:57.433Z,10.01
2023-01-05T02:05:57.398Z,10.03
2023-01-05T02:06:57.373Z,10.03
2023-01-05T02:07:57.397Z,10.03
2023-01-05T02:08:57.336Z,10.01
2023-01-05T02:09:57.331Z,10.00
2023-01-05T02:10:57.311Z,10.00
2023-01-05T02:11:57.320Z,10.00
2023-01-05T02:12:57.286Z,10.00
2023-01-05T02:13:57.282Z,10.00
2023-01-05T02:14:57.269Z,10.01
2023-01-05T02:15:57.254Z,10.00
2023-01-05T02:16:57.347Z,10.01
2023-01-05T02:17:57.244Z,10.01
2023-01-05T02:18:57.221Z,10.00
2023-01-05T02:19:57.218Z,9.99
2023-01-05T02:20:57.200Z,9.99
2023-01-05T02:21:57.208Z,9.97
2023-01-05T02:22:57.181Z,9.97
2023-01-05T02:23:57.166Z,9.96
2023-01-05T02:24:57.151Z,9.97
2023-01-05T02:25:57.146Z,9.96
2023-01-05T02:26:57.156Z,9.97
2023-01-05T02:27:57.127Z,9.96
2023-01-05T02:28:57.122Z,9.96
2023-01-05T02:29:57.105Z,9.94
2023-01-05T02:30:57.130Z,9.94
2023-01-05T02:31:57.092Z,9.96
2023-01-05T02:32:57.072Z,9.94
2023-01-05T02:33:57.052Z,9.94
2023-01-05T02:34:57.040Z,9.93
2023-01-05T02:35:57.066Z,9.91
2023-01-05T02:36:57.148Z,9.91
2023-01-05T02:37:57.012Z,9.89
2023-01-05T02:38:56.993Z,9.89
2023-01-05T02:39:56.994Z,9.91
2023-01-05T02:40:57.011Z,9.91
2023-01-05T02:41:56.992Z,9.89
2023-01-05T02:42:56.960Z,9.89
2023-01-05T02:43:56.946Z,9.89
2023-01-05T02:44:56.945Z,9.91
2023-01-05T02:45:57.090Z,9.93
2023-01-05T02:46:56.930Z,9.91
2023-01-05T02:47:56.904Z,9.93
2023-01-05T02:48:56.892Z,9.91
2023-01-05T02:49:56.890Z,9.89
2023-01-05T02:50:56.875Z,9.89
2023-01-05T02:51:56.883Z,9.88
2023-01-05T02:52:56.847Z,9.88
2023-01-05T02:53:56.835Z,9.89
2023-01-05T02:54:56.830Z,9.91
2023-01-05T02:55:56.817Z,9.91
2023-01-05T02:56:56.827Z,9.93
2023-01-05T02:57:56.799Z,9.93
2023-01-05T02:58:56.779Z,9.94
2023-01-05T02:59:56.771Z,9.93
2023-01-05T03:00:56.881Z,9.93
2023-01-05T03:01:56.916Z,9.93
2023-01-05T03:02:57.020Z,9.93
2023-01-05T03:03:56.756Z,9.91
2023-01-05T03:04:56.727Z,9.89
2023-01-05T03:05:56.714Z,9.91
2023-01-05T03:06:56.979Z,9.93
2023-01-05T03:07:56.687Z,9.91
2023-01-05T03:08:56.682Z,9.94
2023-01-05T03:09:56.668Z,9.94
2023-01-05T03:10:56.652Z,9.94
2023-01-05T03:11:56.636Z,9.94
2023-01-05T03:12:56.652Z,9.94
2023-01-05T03:13:56.627Z,9.93
2023-01-05T03:14:56.612Z,9.94
2023-01-05T03:15:56.711Z,9.93
2023-01-05T03:16:56.579Z,9.93
2023-01-05T03:17:56.587Z,9.91
2023-01-05T03:18:56.567Z,9.89
2023-01-05T03:19:56.550Z,9.86
2023-01-05T03:20:56.544Z,9.83
2023-01-05T03:21:56.532Z,9.83
2023-01-05T03:22:56.548Z,9.82
2023-01-05T03:23:56.517Z,9.81
2023-01-05T03:24:56.491Z,9.79
2023-01-05T03:25:56.489Z,9.79
2023-01-05T03:26:56.474Z,9.79
2023-01-05T03:27:56.481Z,9.76
2023-01-05T03:28:56.461Z,9.75
2023-01-05T03:29:56.447Z,9.73
2023-01-05T03:30:56.479Z,9.75
2023-01-05T03:31:56.432Z,9.71
2023-01-05T03:32:56.433Z,9.70
2023-01-05T03:33:56.407Z,9.70
2023-01-05T03:34:56.395Z,9.68
2023-01-05T03:35:56.384Z,9.67
2023-01-05T03:36:56.376Z,9.64
2023-01-05T03:37:56.371Z,9.66
2023-01-05T03:38:56.359Z,9.66
2023-01-05T03:39:56.337Z,9.67
2023-01-05T03:40:56.327Z,9.64
2023-01-05T03:41:56.309Z,9.64
2023-01-05T03:42:56.308Z,9.64
2023-01-05T03:43:56.301Z,9.63
2023-01-05T03:44:56.289Z,9.61
2023-01-05T03:45:56.358Z,9.58
2023-01-05T03:46:56.269Z,9.58
2023-01-05T03:47:56.263Z,9.58
2023-01-05T03:48:56.236Z,9.57
2023-01-05T03:49:56.237Z,9.57
2023-01-05T03:50:56.235Z,9.53
2023-01-05T03:51:56.207Z,9.57
2023-01-05T03:52:56.211Z,9.53
2023-01-05T03:53:56.185Z,9.56
2023-01-05T03:54:56.169Z,9.56
2023-01-05T03:55:56.165Z,9.56
2023-01-05T03:56:56.168Z,9.57
2023-01-05T03:57:56.153Z,9.56
2023-01-05T03:58:56.125Z,9.56
2023-01-05T03:59:56.124Z,9.58
2023-01-05T04:00:56.107Z,9.56
2023-01-05T04:01:56.267Z,9.52
2023-01-05T04:02:56.259Z,9.49
2023-01-05T04:03:56.137Z,9.48
2023-01-05T04:04:56.070Z,9.45
2023-01-05T04:05:56.064Z,9.42
2023-01-05T04:06:56.040Z,9.39
2023-01-05T04:07:56.048Z,9.38
2023-01-05T04:08:56.028Z,9.34
2023-01-05T04:09:56.012Z,9.32
2023-01-05T04:10:56.018Z,9.31
2023-01-05T04:11:55.995Z,9.28
2023-01-05T04:12:55.993Z,9.27
2023-01-05T04:13:55.971Z,9.24
2023-01-05T04:14:55.954Z,9.24
2023-01-05T04:15:55.970Z,9.23
2023-01-05T04:16:55.936Z,9.21
2023-01-05T04:17:55.947Z,9.21
2023-01-05T04:18:55.922Z,9.20
2023-01-05T04:19:55.901Z,9.18
2023-01-05T04:20:55.897Z,9.16
2023-01-05T04:21:55.892Z,9.15
2023-01-05T04:22:55.893Z,9.15
2023-01-05T04:23:55.863Z,9.13
2023-01-05T04:24:55.848Z,9.12
2023-01-05T04:25:55.844Z,9.12
2023-01-05T04:26:55.833Z,9.10
2023-01-05T04:27:55.833Z,9.09
2023-01-05T04:28:55.805Z,9.06
2023-01-05T04:29:55.798Z,9.04
2023-01-05T04:30:55.836Z,9.01
2023-01-05T04:31:55.779Z,8.97
2023-01-05T04:32:55.796Z,8.96
2023-01-05T04:33:55.754Z,8.96
2023-01-05T04:34:55.748Z,8.94
2023-01-05T04:35:55.734Z,8.96
2023-01-05T04:36:55.713Z,8.94
2023-01-05T04:37:55.729Z,8.96
2023-01-05T04:38:55.703Z,8.97
2023-01-05T04:39:55.695Z,9.01
2023-01-05T04:40:55.686Z,9.02
2023-01-05T04:41:55.684Z,9.01
2023-01-05T04:42:55.669Z,9.04
2023-01-05T04:43:55.671Z,9.04
2023-01-05T04:44:55.654Z,9.04
2023-01-05T04:45:55.634Z,9.04
2023-01-05T04:46:55.655Z,9.02
2023-01-05T04:47:55.631Z,9.01
2023-01-05T04:48:55.604Z,8.99
2023-01-05T04:49:55.625Z,8.99
2023-01-05T04:50:55.575Z,8.97
2023-01-05T04:51:55.581Z,8.96
2023-01-05T04:52:55.570Z,8.94
2023-01-05T04:53:55.536Z,8.94
2023-01-05T04:54:55.554Z,8.94
2023-01-05T04:55:55.538Z,8.96
2023-01-05T04:56:55.522Z,8.97
2023-01-05T04:57:55.524Z,9.01
2023-01-05T04:58:55.484Z,9.01
2023-01-05T04:59:55.483Z,8.99
2023-01-05T05:00:55.471Z,8.97
2023-01-05T05:01:55.564Z,8.94
2023-01-05T05:02:55.541Z,8.93
2023-01-05T05:03:55.483Z,8.91
2023-01-05T05:04:55.425Z,8.90
2023-01-05T05:05:55.405Z,8.90
2023-01-05T05:06:55.391Z,8.90
2023-01-05T05:07:55.405Z,8.90
2023-01-05T05:08:55.383Z,8.88
2023-01-05T05:09:55.369Z,8.90
2023-01-05T05:10:55.356Z,8.90
2023-01-05T05:11:55.342Z,8.88
2023-01-05T05:12:55.344Z,8.87
2023-01-05T05:13:55.325Z,8.84
2023-01-05T05:14:55.310Z,8.84
2023-01-05T05:15:55.367Z,8.83
2023-01-05T05:16:55.287Z,8.86
2023-01-05T05:17:55.300Z,8.91
2023-01-05T05:18:55.263Z,8.91
2023-01-05T05:19:55.257Z,8.90
2023-01-05T05:20:55.242Z,8.90
2023-01-05T05:21:55.234Z,8.90
2023-01-05T05:22:55.234Z,8.88
2023-01-05T05:23:55.213Z,8.90
2023-01-05T05:24:55.191Z,8.88
2023-01-05T05:25:55.187Z,8.88
2023-01-05T05:26:55.182Z,8.88
2023-01-05T05:27:55.185Z,8.88
2023-01-05T05:28:55.158Z,8.86
2023-01-05T05:29:55.142Z,8.84
2023-01-05T05:30:55.150Z,8.86
2023-01-05T05:31:55.118Z,8.86
2023-01-05T05:32:55.134Z,8.87
2023-01-05T05:33:55.098Z,8.87
2023-01-05T05:34:55.085Z,8.87
2023-01-05T05:35:55.088Z,8.88
2023-01-05T05:36:55.066Z,8.91
2023-01-05T05:37:56.820Z,8.90
2023-01-05T05:38:55.040Z,8.90
2023-01-05T05:39:55.032Z,8.88
2023-01-05T05:40:55.031Z,8.87
2023-01-05T05:41:55.013Z,8.88
2023-01-05T05:42:55.012Z,8.88
2023-01-05T05:43:54.988Z,8.88
2023-01-05T05:44:54.979Z,8.88
2023-01-05T05:45:54.971Z,8.91
2023-01-05T05:46:54.992Z,8.96
2023-01-05T05:47:55.002Z,8.99
2023-01-05T05:48:54.938Z,9.04
2023-01-05T05:49:54.922Z,9.05
2023-01-05T05:50:54.908Z,9.04
2023-01-05T05:51:54.955Z,9.01
2023-01-05T05:52:54.889Z,9.01
2023-01-05T05:53:54.899Z,8.99
2023-01-05T05:54:54.868Z,9.02
2023-01-05T05:55:54.854Z,9.04
2023-01-05T05:56:54.857Z,9.04
2023-01-05T05:57:54.836Z,9.05
2023-01-05T05:59:01.054Z,9.05
2023-01-05T05:59:54.819Z,9.05
2023-01-05T06:00:54.806Z,9.04
2023-01-05T06:01:54.895Z,9.02
2023-01-05T06:02:55.081Z,8.99
2023-01-05T06:03:54.912Z,9.01
2023-01-05T06:04:54.762Z,8.99
2023-01-05T06:05:54.755Z,9.02
2023-01-05T06:06:54.744Z,9.02
2023-01-05T06:07:54.725Z,9.04
2023-01-05T06:08:54.729Z,9.05
2023-01-05T06:09:54.707Z,9.06
2023-01-05T06:10:54.700Z,9.10
2023-01-05T06:11:54.697Z,9.10
2023-01-05T06:12:54.670Z,9.13
2023-01-05T06:13:54.703Z,9.15
2023-01-05T06:14:54.654Z,9.15
2023-01-05T06:15:54.735Z,9.16
2023-01-05T06:16:54.626Z,9.16
2023-01-05T06:17:54.620Z,9.15
2023-01-05T06:18:54.619Z,9.13
2023-01-05T06:19:54.592Z,9.13
2023-01-05T06:21:01.162Z,9.12
2023-01-05T06:21:54.580Z,9.12
2023-01-05T06:22:54.565Z,9.12
2023-01-05T06:23:54.573Z,9.12
2023-01-05T06:24:54.567Z,9.12
2023-01-05T06:25:54.533Z,9.13
2023-01-05T06:26:54.525Z,9.13
2023-01-05T06:27:54.510Z,9.13
2023-01-05T06:28:54.516Z,9.13
2023-01-05T06:29:54.484Z,9.12
2023-01-05T06:30:54.479Z,9.13
2023-01-05T06:31:54.554Z,9.13
2023-01-05T06:32:54.456Z,9.12
2023-01-05T06:33:54.467Z,9.13
2023-01-05T06:34:54.430Z,9.13
2023-01-05T06:35:54.422Z,9.13
2023-01-05T06:36:59.198Z,9.16
2023-01-05T06:37:54.408Z,9.15
2023-01-05T06:38:54.410Z,9.15
2023-01-05T06:39:54.376Z,9.15
2023-01-05T06:40:54.365Z,9.15
2023-01-05T06:41:54.359Z,9.15
2023-01-05T06:42:54.361Z,9.16
2023-01-05T06:43:54.354Z,9.18
2023-01-05T06:44:54.336Z,9.16
2023-01-05T06:45:54.362Z,9.20
2023-01-05T06:46:54.306Z,9.20
2023-01-05T06:47:54.301Z,9.18
2023-01-05T06:48:54.290Z,9.20
2023-01-05T06:49:54.270Z,9.21
2023-01-05T06:50:54.265Z,9.21
2023-01-05T06:51:54.253Z,9.21
2023-01-05T06:52:54.239Z,9.20
2023-01-05T06:53:54.244Z,9.20
2023-01-05T06:54:54.215Z,9.21
2023-01-05T06:55:54.199Z,9.21
2023-01-05T06:57:00.758Z,9.20
2023-01-05T06:58:00.237Z,9.18
2023-01-05T06:58:54.191Z,9.18
2023-01-05T06:59:54.163Z,9.16
2023-01-05T07:00:54.179Z,9.16
2023-01-05T07:01:54.283Z,9.20
2023-01-05T07:02:54.133Z,9.18
2023-01-05T07:03:54.175Z,9.20
2023-01-05T07:04:54.111Z,9.18
2023-01-05T07:05:54.099Z,9.18
2023-01-05T07:06:54.083Z,9.16
2023-01-05T07:07:54.073Z,9.20
2023-01-05T07:08:54.075Z,9.18
2023-01-05T07:09:54.060Z,9.21
2023-01-05T07:10:54.104Z,9.21
2023-01-05T07:11:54.027Z,9.24
2023-01-05T07:12:54.029Z,9.21
2023-01-05T07:13:54.021Z,9.21
2023-01-05T07:14:57.485Z,9.20
2023-01-05T07:15:54.110Z,9.20
2023-01-05T07:16:54.039Z,9.16
2023-01-05T07:17:53.966Z,9.15
2023-01-05T07:18:53.978Z,9.15
2023-01-05T07:19:53.955Z,9.13
2023-01-05T07:20:53.954Z,9.12
2023-01-05T07:21:56.952Z,9.12
2023-01-05T07:22:53.914Z,9.15
2023-01-05T07:23:53.947Z,9.15
2023-01-05T07:24:53.885Z,9.15
2023-01-05T07:25:53.884Z,9.15
2023-01-05T07:26:53.875Z,9.13
2023-01-05T07:27:53.857Z,9.13
2023-01-05T07:28:53.876Z,9.12
2023-01-05T07:29:53.827Z,9.13
2023-01-05T07:30:53.828Z,9.13
2023-01-05T07:31:53.863Z,9.16
2023-01-05T07:32:53.817Z,9.16
2023-01-05T07:33:53.808Z,9.16
2023-01-05T07:34:55.877Z,9.18
2023-01-05T07:35:53.788Z,9.15
2023-01-05T07:36:53.761Z,9.13
2023-01-05T07:37:53.742Z,9.15
2023-01-05T07:38:53.782Z,9.15
2023-01-05T07:39:53.728Z,9.15
2023-01-05T07:40:53.717Z,9.15
2023-01-05T07:41:53.707Z,9.18
2023-01-05T07:42:53.711Z,9.20
2023-01-05T07:43:53.716Z,9.20
2023-01-05T07:44:53.699Z,9.21
2023-01-05T07:45:53.723Z,9.21
2023-01-05T07:46:53.652Z,9.20
2023-01-05T07:47:53.655Z,9.20
2023-01-05T07:48:53.724Z,9.18
2023-01-05T07:49:53.620Z,9.15
2023-01-05T07:50:53.653Z,9.13
2023-01-05T07:51:53.591Z,9.13
2023-01-05T07:52:53.660Z,9.13
2023-01-05T07:53:53.598Z,9.13
2023-01-05T07:54:53.564Z,9.15
2023-01-05T07:55:53.601Z,9.16
2023-01-05T07:56:53.597Z,9.16
2023-01-05T07:57:53.551Z,9.16
2023-01-05T07:58:53.598Z,9.16
2023-01-05T07:59:53.523Z,9.15
2023-01-05T08:00:53.536Z,9.15
2023-01-05T08:01:53.685Z,9.15
2023-01-05T08:02:53.497Z,9.15
2023-01-05T08:03:53.539Z,9.15
2023-01-05T08:04:53.443Z,9.13
2023-01-05T08:05:53.451Z,9.15
2023-01-05T08:06:53.509Z,9.16
2023-01-05T08:07:53.426Z,9.16
2023-01-05T08:08:53.426Z,9.15
2023-01-05T08:09:53.395Z,9.15
2023-01-05T08:10:53.426Z,9.13
2023-01-05T08:11:53.382Z,9.13
2023-01-05T08:12:53.369Z,9.15
2023-01-05T08:13:53.381Z,9.13
2023-01-05T08:14:53.385Z,9.12
2023-01-05T08:15:53.341Z,9.12
2023-01-05T08:16:53.344Z,9.10
2023-01-05T08:17:53.323Z,9.10
2023-01-05T08:18:53.341Z,9.09
2023-01-05T08:19:53.304Z,9.05
2023-01-05T08:20:53.291Z,9.04
2023-01-05T08:21:53.274Z,9.02
2023-01-05T08:22:53.279Z,9.01
2023-01-05T08:23:53.280Z,8.97
2023-01-05T08:24:53.228Z,8.97
2023-01-05T08:25:53.219Z,8.96
2023-01-05T08:26:53.281Z,8.93
2023-01-05T08:27:53.251Z,8.94
2023-01-05T08:28:53.207Z,8.91
2023-01-05T08:29:53.184Z,8.91
2023-01-05T08:30:53.166Z,8.91
2023-01-05T08:31:53.189Z,8.94
2023-01-05T08:32:53.139Z,8.94
2023-01-05T08:33:53.151Z,8.96
2023-01-05T08:34:55.553Z,9.01
2023-01-05T08:35:53.112Z,9.06
2023-01-05T08:36:53.152Z,9.09
2023-01-05T08:37:53.101Z,9.12
2023-01-05T08:38:53.133Z,9.13
2023-01-05T08:39:53.105Z,9.16
2023-01-05T08:40:53.067Z,9.18
2023-01-05T08:41:56.236Z,9.18
2023-01-05T08:42:53.059Z,9.20
2023-01-05T08:43:53.038Z,9.20
2023-01-05T08:44:53.013Z,9.21
2023-01-05T08:45:53.064Z,9.24
2023-01-05T08:46:52.988Z,9.27
2023-01-05T08:47:52.985Z,9.28
2023-01-05T08:48:52.988Z,9.30
2023-01-05T08:49:52.963Z,9.30
2023-01-05T08:50:52.943Z,9.30
2023-01-05T08:51:52.966Z,9.30
2023-01-05T08:52:52.922Z,9.34
2023-01-05T08:53:52.946Z,9.35
2023-01-05T08:54:52.903Z,9.34
2023-01-05T08:55:52.909Z,9.34
2023-01-05T08:56:52.935Z,9.34
2023-01-05T08:57:52.874Z,9.38
2023-01-05T08:58:52.901Z,9.38
2023-01-05T08:59:52.846Z,9.38
2023-01-05T09:00:52.858Z,9.39
2023-01-05T09:01:53.046Z,9.39
2023-01-05T09:02:52.912Z,9.39
2023-01-05T09:03:52.826Z,9.39
2023-01-05T09:04:52.795Z,9.40
2023-01-05T09:05:52.807Z,9.39
2023-01-05T09:06:52.767Z,9.40
2023-01-05T09:07:52.762Z,9.42
2023-01-05T09:08:52.766Z,9.42
2023-01-05T09:09:52.742Z,9.42
2023-01-05T09:10:52.728Z,9.43
2023-01-05T09:11:58.187Z,9.43
2023-01-05T09:12:52.718Z,9.43
2023-01-05T09:13:52.724Z,9.43
2023-01-05T09:14:52.713Z,9.45
2023-01-05T09:15:52.676Z,9.45
2023-01-05T09:17:08.688Z,9.46
2023-01-05T09:17:52.725Z,9.46
2023-01-05T09:18:52.699Z,9.46
2023-01-05T09:19:52.635Z,9.46
2023-01-05T09:20:52.628Z,9.42
2023-01-05T09:21:52.622Z,9.43
2023-01-05T09:22:52.602Z,9.42
2023-01-05T09:23:52.632Z,9.45
2023-01-05T09:24:52.625Z,9.45
2023-01-05T09:25:52.576Z,9.45
2023-01-05T09:26:52.550Z,9.48
2023-01-05T09:27:52.552Z,9.46
2023-01-05T09:28:52.557Z,9.45
2023-01-05T09:29:52.528Z,9.42
2023-01-05T09:30:52.555Z,9.43
2023-01-05T09:31:52.501Z,9.43
2023-01-05T09:32:52.485Z,9.45
2023-01-05T09:33:52.519Z,9.49
2023-01-05T09:34:52.458Z,9.48
2023-01-05T09:35:52.450Z,9.46
2023-01-05T09:36:52.442Z,9.49
2023-01-05T09:37:52.459Z,9.52
2023-01-05T09:38:52.420Z,9.53
2023-01-05T09:39:52.441Z,9.57
2023-01-05T09:40:52.386Z,9.61
2023-01-05T09:41:52.384Z,9.63
2023-01-05T09:42:52.373Z,9.61
2023-01-05T09:43:52.428Z,9.63
2023-01-05T09:44:58.363Z,9.63
2023-01-05T09:45:52.500Z,9.64
2023-01-05T09:46:52.329Z,9.63
2023-01-05T09:47:52.327Z,9.61
2023-01-05T09:48:52.304Z,9.64
2023-01-05T09:49:52.314Z,9.63
2023-01-05T09:50:52.296Z,9.63
2023-01-05T09:51:52.269Z,9.64
2023-01-05T09:52:52.259Z,9.63
2023-01-05T09:53:52.258Z,9.60
2023-01-05T09:54:52.260Z,9.58
2023-01-05T09:55:52.249Z,9.58
2023-01-05T09:57:09.135Z,9.60
2023-01-05T09:57:52.210Z,9.60
2023-01-05T09:58:52.199Z,9.60
2023-01-05T09:59:52.191Z,9.60
2023-01-05T10:00:52.177Z,9.60
2023-01-05T10:01:52.187Z,9.61
2023-01-05T10:02:52.235Z,9.63
2023-01-05T10:04:07.586Z,9.63
2023-01-05T10:04:52.282Z,9.64
2023-01-05T10:05:52.192Z,9.66
2023-01-05T10:06:52.152Z,9.66
2023-01-05T10:07:52.085Z,9.67
2023-01-05T10:08:52.136Z,9.64
2023-01-05T10:09:52.094Z,9.66
2023-01-05T10:10:52.079Z,9.67
2023-01-05T10:11:52.109Z,9.66
2023-01-05T10:12:52.049Z,9.63
2023-01-05T10:13:52.048Z,9.63
2023-01-05T10:14:52.024Z,9.60
2023-01-05T10:15:52.030Z,9.56
2023-01-05T10:16:57.871Z,9.52
2023-01-05T10:17:51.991Z,9.48
2023-01-05T10:18:51.968Z,9.46
2023-01-05T10:19:51.971Z,9.40
2023-01-05T10:20:51.966Z,9.38
2023-01-05T10:21:51.942Z,9.39
2023-01-05T10:22:51.927Z,9.35
2023-01-05T10:23:51.919Z,9.34
2023-01-05T10:24:51.923Z,9.30
2023-01-05T10:25:51.919Z,9.28
2023-01-05T10:27:23.581Z,9.28
2023-01-05T10:27:56.645Z,9.27
2023-01-05T10:28:51.869Z,9.27
2023-01-05T10:29:51.875Z,9.24
2023-01-05T10:30:51.903Z,9.24
2023-01-05T10:31:51.849Z,9.23
2023-01-05T10:32:51.818Z,9.23
2023-01-05T10:33:54.578Z,9.21
2023-01-05T10:34:51.836Z,9.23
2023-01-05T10:36:00.916Z,9.25
2023-01-05T10:37:08.937Z,9.24
2023-01-05T10:37:51.761Z,9.21
2023-01-05T10:38:51.753Z,9.18
2023-01-05T10:39:56.219Z,9.18
2023-01-05T10:40:51.728Z,9.16
2023-01-05T10:41:51.719Z,9.18
2023-01-05T10:42:51.721Z,9.16
2023-01-05T10:43:51.689Z,9.15
2023-01-05T10:44:51.732Z,9.18
2023-01-05T10:46:28.699Z,9.16
2023-01-05T10:46:52.877Z,9.18
2023-01-05T10:47:51.708Z,9.18
2023-01-05T10:48:51.684Z,9.18
2023-01-05T10:49:51.645Z,9.18
2023-01-05T10:51:06.554Z,9.18
2023-01-05T10:51:56.588Z,9.20
2023-01-05T10:52:51.863Z,9.18
2023-01-05T10:53:51.595Z,9.21
2023-01-05T10:54:51.603Z,9.21
2023-01-05T10:55:51.569Z,9.21
2023-01-05T10:56:51.555Z,9.16
2023-01-05T10:57:51.589Z,9.16
2023-01-05T10:58:51.568Z,9.13
2023-01-05T10:59:51.590Z,9.16
2023-01-05T11:00:51.510Z,9.18
2023-01-05T11:01:51.615Z,9.16
2023-01-05T11:02:51.514Z,9.15
2023-01-05T11:04:26.909Z,9.15
2023-01-05T11:04:51.525Z,9.15
2023-01-05T11:05:51.448Z,9.13
2023-01-05T11:06:51.447Z,9.13
2023-01-05T11:07:51.425Z,9.15
2023-01-05T11:08:51.435Z,9.15
2023-01-05T11:09:52.041Z,9.15
2023-01-05T11:10:51.403Z,9.15
2023-01-05T11:11:51.385Z,9.18
2023-01-05T11:12:51.382Z,9.16
2023-01-05T11:13:51.374Z,9.20
2023-01-05T11:14:57.811Z,9.21
2023-01-05T11:15:51.393Z,9.23
2023-01-05T11:16:51.399Z,9.23
2023-01-05T11:17:51.327Z,9.23
2023-01-05T11:18:51.328Z,9.21
2023-01-05T11:19:51.353Z,9.21
2023-01-05T11:20:51.291Z,9.20
2023-01-05T11:21:54.077Z,9.20
2023-01-05T11:22:51.327Z,9.21
2023-01-05T11:23:51.253Z,9.20
2023-01-05T11:24:51.273Z,9.20
2023-01-05T11:25:51.237Z,9.20
2023-01-05T11:26:51.229Z,9.23
2023-01-05T11:27:58.138Z,9.21
2023-01-05T11:28:51.219Z,9.20
2023-01-05T11:29:51.216Z,9.18
2023-01-05T11:30:51.207Z,9.16
2023-01-05T11:31:51.180Z,9.18
2023-01-05T11:32:51.174Z,9.18
2023-01-05T11:33:51.166Z,9.18
2023-01-05T11:34:51.155Z,9.23
2023-01-05T11:35:51.123Z,9.24
2023-01-05T11:36:51.133Z,9.25
2023-01-05T11:37:51.099Z,9.28
2023-01-05T11:38:51.099Z,9.30
2023-01-05T11:39:51.118Z,9.31
2023-01-05T11:40:51.079Z,9.31
2023-01-05T11:41:51.072Z,9.28
2023-01-05T11:42:51.047Z,9.24
2023-01-05T11:43:51.041Z,9.23
2023-01-05T11:44:51.069Z,9.23
2023-01-05T11:45:51.022Z,9.24
2023-01-05T11:46:51.113Z,9.24
2023-01-05T11:47:51.001Z,9.24
2023-01-05T11:48:50.994Z,9.24
2023-01-05T11:49:56.771Z,9.25
2023-01-05T11:50:50.990Z,9.25
2023-01-05T11:51:50.966Z,9.25
2023-01-05T11:52:50.941Z,9.24
2023-01-05T11:53:50.933Z,9.24
2023-01-05T11:54:50.939Z,9.24
2023-01-05T11:55:50.912Z,9.23
2023-01-05T11:56:50.915Z,9.24
2023-01-05T11:57:55.914Z,9.25
2023-01-05T11:58:50.896Z,9.24
2023-01-05T11:59:50.940Z,9.25
2023-01-05T12:00:50.983Z,9.23
2023-01-05T12:01:50.918Z,9.23
2023-01-05T12:02:50.900Z,9.23
2023-01-05T12:03:56.891Z,9.23
2023-01-05T12:04:50.840Z,9.20
2023-01-05T12:05:50.840Z,9.21
2023-01-05T12:06:50.789Z,9.21
2023-01-05T12:07:50.794Z,9.24
2023-01-05T12:08:50.849Z,9.25
2023-01-05T12:09:50.784Z,9.23
2023-01-05T12:10:50.758Z,9.23
2023-01-05T12:11:50.739Z,9.21
2023-01-05T12:12:50.725Z,9.23
2023-01-05T12:13:50.722Z,9.23
2023-01-05T12:14:50.745Z,9.24
2023-01-05T12:15:50.745Z,9.24
2023-01-05T12:16:50.739Z,9.24
2023-01-05T12:17:50.696Z,9.24
2023-01-05T12:18:50.666Z,9.23
2023-01-05T12:19:50.671Z,9.23
2023-01-05T12:20:50.661Z,9.21
2023-01-05T12:21:50.628Z,9.18
2023-01-05T12:22:50.631Z,9.20
2023-01-05T12:23:50.632Z,9.16
2023-01-05T12:24:50.625Z,9.18
2023-01-05T12:25:50.608Z,9.20
2023-01-05T12:26:50.589Z,9.20
2023-01-05T12:27:50.569Z,9.20
2023-01-05T12:29:30.137Z,9.20
2023-01-05T12:34:12.764Z,9.20
2023-01-05T12:34:50.514Z,9.18
2023-01-05T12:35:50.485Z,9.18
2023-01-05T12:36:50.510Z,9.18
2023-01-05T12:37:50.467Z,9.15
2023-01-05T12:38:50.460Z,9.13
2023-01-05T12:39:50.460Z,9.13
2023-01-05T12:40:50.434Z,9.12
2023-01-05T12:41:50.436Z,9.15
2023-01-05T12:42:50.414Z,9.13
2023-01-05T12:43:50.403Z,9.12
2023-01-05T12:44:50.402Z,9.12
2023-01-05T12:45:50.366Z,9.13
2023-01-05T12:46:50.454Z,9.12
2023-01-05T12:47:50.359Z,9.13
2023-01-05T12:48:50.351Z,9.10
2023-01-05T12:49:50.353Z,9.10
2023-01-05T12:50:50.317Z,9.09
2023-01-05T12:51:50.309Z,9.09
2023-01-05T12:52:50.305Z,9.05
2023-01-05T12:53:50.293Z,9.05
2023-01-05T12:54:50.299Z,9.05
2023-01-05T12:55:50.285Z,9.04
2023-01-05T12:56:50.262Z,9.05
2023-01-05T12:57:50.252Z,9.05
2023-01-05T12:58:53.957Z,9.05
2023-01-05T12:59:50.245Z,9.04
2023-01-05T13:00:50.220Z,9.04
2023-01-05T13:01:50.340Z,9.02
2023-01-05T13:02:50.257Z,9.05
2023-01-05T13:03:50.187Z,9.06
2023-01-05T13:04:55.945Z,9.06
2023-01-05T13:05:50.165Z,9.04
2023-01-05T13:06:50.161Z,9.04
2023-01-05T13:07:50.169Z,9.04
2023-01-05T13:08:50.133Z,9.02
2023-01-05T13:09:50.138Z,9.01
2023-01-05T13:10:50.111Z,9.02
2023-01-05T13:11:50.103Z,9.04
2023-01-05T13:12:50.096Z,9.04
2023-01-05T13:13:50.074Z,9.02
2023-01-05T13:14:50.077Z,9.02
2023-01-05T13:15:50.120Z,9.01
2023-01-05T13:16:50.055Z,9.01
2023-01-05T13:17:50.039Z,9.02
2023-01-05T13:18:50.037Z,9.01